Time;durP1;ratioP1;P1;durP2;ratioP2;P2;SDS_P1;SDS_P2;PMS_P1;PMS_P2;Temp;Humidity;BMP_temperature;BMP_pressure;BME280_temperature;BME280_humidity;BME280_pressure;Samples;Min_cycle;Max_cycle;Signal;HPM_P1;HPM_P2
2023/10/28 00:01:13;;;;;;;101.60;32.83;;;8.50;99.90;;;;;;5193025;28;20451;-50
2023/10/28 00:03:44;;;;;;;71.83;26.20;;;8.50;99.90;;;;;;5187350;28;20184;-53
2023/10/28 00:06:14;;;;;;;68.03;26.47;;;8.50;99.90;;;;;;5189930;28;20438;-52
2023/10/28 00:08:45;;;;;;;84.20;28.23;;;8.50;99.90;;;;;;5191522;28;20199;-51
2023/10/28 00:11:19;;;;;;;78.10;25.97;;;8.50;99.90;;;;;;5190351;28;20208;-51
2023/10/28 00:13:50;;;;;;;61.27;23.83;;;8.50;99.90;;;;;;5187622;28;20180;-54
2023/10/28 00:16:21;;;;;;;89.27;28.27;;;8.50;99.90;;;;;;5191197;28;20817;-51
2023/10/28 00:18:51;;;;;;;81.73;27.33;;;8.50;99.90;;;;;;5187321;28;20432;-50
2023/10/28 00:21:22;;;;;;;76.97;27.13;;;8.50;99.90;;;;;;5190615;28;20199;-52
2023/10/28 00:23:52;;;;;;;90.40;28.17;;;8.50;99.90;;;;;;5203136;28;20180;-51
2023/10/28 00:26:23;;;;;;;88.73;28.00;;;8.50;99.90;;;;;;5194520;28;20184;-52
2023/10/28 00:28:54;;;;;;;70.23;26.90;;;8.50;99.90;;;;;;5191690;28;20184;-52
2023/10/28 00:31:24;;;;;;;95.70;30.77;;;8.50;99.90;;;;;;5190266;28;20204;-51
2023/10/28 00:33:55;;;;;;;58.17;24.80;;;8.50;99.90;;;;;;5192717;28;20184;-50
2023/10/28 00:36:26;;;;;;;73.07;26.27;;;8.50;99.90;;;;;;5188092;28;20212;-52
2023/10/28 00:38:56;;;;;;;109.20;29.70;;;8.50;99.90;;;;;;5193201;28;20263;-51
2023/10/28 00:41:27;;;;;;;67.13;24.73;;;8.50;99.90;;;;;;5192398;28;20292;-50
2023/10/28 00:43:58;;;;;;;77.90;25.80;;;8.40;99.90;;;;;;5199632;28;20593;-51
2023/10/28 00:46:28;;;;;;;68.87;25.60;;;8.40;99.90;;;;;;5194118;28;20188;-50
2023/10/28 00:48:59;;;;;;;65.47;24.13;;;8.40;99.90;;;;;;5191120;28;20657;-50
2023/10/28 00:51:30;;;;;;;99.30;27.30;;;8.40;99.90;;;;;;5188241;28;20228;-52
2023/10/28 00:54:01;;;;;;;75.13;25.23;;;8.50;99.90;;;;;;5197532;28;20187;-50
2023/10/28 00:56:34;;;;;;;89.10;26.20;;;8.50;99.90;;;;;;5198756;28;20211;-50
2023/10/28 00:59:05;;;;;;;72.80;25.60;;;8.40;99.90;;;;;;5197194;28;20829;-50
2023/10/28 01:01:36;;;;;;;64.60;23.37;;;8.50;99.90;;;;;;5188316;28;20482;-50
2023/10/28 01:04:06;;;;;;;67.73;22.23;;;8.50;99.90;;;;;;5200683;28;20589;-50
2023/10/28 01:06:38;;;;;;;70.93;25.77;;;8.50;99.90;;;;;;5197221;28;20184;-50
2023/10/28 01:09:08;;;;;;;74.40;26.40;;;8.50;99.90;;;;;;5188065;28;20188;-51
2023/10/28 01:11:39;;;;;;;76.47;23.70;;;8.50;99.90;;;;;;5187074;28;20847;-50
2023/10/28 01:14:11;;;;;;;85.37;25.87;;;8.50;99.90;;;;;;5189188;28;20234;-50
2023/10/28 01:16:42;;;;;;;108.90;26.70;;;8.50;99.90;;;;;;5190574;28;20216;-51
2023/10/28 01:19:12;;;;;;;110.73;28.43;;;8.50;99.90;;;;;;5191493;28;20439;-51
2023/10/28 01:21:44;;;;;;;64.23;22.10;;;8.50;99.90;;;;;;5189750;28;20207;-51
2023/10/28 01:24:14;;;;;;;62.13;23.07;;;8.50;99.90;;;;;;5191456;28;20716;-50
2023/10/28 01:26:45;;;;;;;89.50;26.60;;;8.50;99.90;;;;;;5195871;28;20435;-50
2023/10/28 01:29:16;;;;;;;59.90;24.17;;;8.50;99.90;;;;;;5186595;28;20661;-50
2023/10/28 01:31:47;;;;;;;63.33;25.57;;;8.50;99.90;;;;;;5191123;28;20778;-50
2023/10/28 01:34:17;;;;;;;88.00;28.10;;;8.50;99.90;;;;;;5191192;28;20177;-48
2023/10/28 01:36:49;;;;;;;74.83;26.50;;;8.50;99.90;;;;;;5193016;28;20812;-50
2023/10/28 01:39:19;;;;;;;91.57;29.80;;;8.50;99.90;;;;;;5193548;28;20180;-50
2023/10/28 01:41:50;;;;;;;76.67;26.17;;;8.50;99.90;;;;;;5182664;28;20794;-50
2023/10/28 01:44:21;;;;;;;62.10;26.13;;;8.50;99.90;;;;;;5188401;28;20187;-50
2023/10/28 01:46:51;;;;;;;116.63;30.97;;;8.50;99.90;;;;;;5186941;28;20172;-49
2023/10/28 01:49:22;;;;;;;82.77;27.77;;;8.50;99.90;;;;;;5185758;28;20235;-52
2023/10/28 01:51:53;;;;;;;75.70;28.37;;;8.50;99.90;;;;;;5183361;28;20181;-50
2023/10/28 01:54:23;;;;;;;70.60;26.40;;;8.50;99.90;;;;;;5192878;28;20600;-49
2023/10/28 01:56:54;;;;;;;84.67;28.63;;;8.50;99.90;;;;;;5191076;28;20267;-50
2023/10/28 01:59:25;;;;;;;64.87;26.13;;;8.50;99.90;;;;;;5190097;28;20179;-49
2023/10/28 02:01:56;;;;;;;69.87;26.90;;;8.50;99.90;;;;;;5183871;28;20180;-51
2023/10/28 02:04:29;;;;;;;70.13;25.07;;;8.50;99.90;;;;;;5187301;28;20504;-50
2023/10/28 02:07:00;;;;;;;99.90;29.60;;;8.50;99.90;;;;;;5178856;28;20180;-51
2023/10/28 02:09:34;;;;;;;67.63;27.40;;;8.50;99.90;;;;;;5190520;28;20451;-50
2023/10/28 02:12:04;;;;;;;84.80;28.90;;;8.50;99.90;;;;;;5191793;28;20433;-51
2023/10/28 02:14:35;;;;;;;85.30;29.57;;;8.50;99.90;;;;;;5184619;28;20466;-50
2023/10/28 02:17:06;;;;;;;110.70;31.87;;;8.50;99.90;;;;;;5188344;28;20184;-52
2023/10/28 02:19:37;;;;;;;71.93;28.10;;;8.50;99.90;;;;;;5188808;28;20208;-49
2023/10/28 02:22:09;;;;;;;70.43;27.60;;;8.50;99.90;;;;;;5188345;28;20177;-50
2023/10/28 02:24:41;;;;;;;80.17;27.77;;;8.50;99.90;;;;;;5189271;28;20675;-49
2023/10/28 02:27:12;;;;;;;88.90;29.07;;;8.50;99.90;;;;;;5187238;28;20430;-51
2023/10/28 02:29:42;;;;;;;99.60;31.20;;;8.40;99.90;;;;;;5187522;28;21023;-50
2023/10/28 02:32:13;;;;;;;82.80;26.70;;;8.50;99.90;;;;;;5190526;28;20223;-50
2023/10/28 02:34:44;;;;;;;90.70;27.83;;;8.40;99.90;;;;;;5194326;28;20601;-50
2023/10/28 02:37:15;;;;;;;86.93;28.20;;;8.40;99.90;;;;;;5187901;28;20489;-50
2023/10/28 02:39:47;;;;;;;79.47;25.57;;;8.40;99.90;;;;;;5187119;28;20839;-51
2023/10/28 02:42:17;;;;;;;74.23;23.47;;;8.50;99.90;;;;;;5196768;28;20446;-51
2023/10/28 02:44:49;;;;;;;105.57;26.83;;;8.40;99.90;;;;;;5185363;28;20436;-51
2023/10/28 02:47:20;;;;;;;54.90;21.90;;;8.40;99.90;;;;;;5188346;28;20184;-52
2023/10/28 02:49:51;;;;;;;82.13;26.77;;;8.40;99.90;;;;;;5196002;28;20528;-51
2023/10/28 02:52:21;;;;;;;79.83;26.27;;;8.40;99.90;;;;;;5192193;28;20447;-51
2023/10/28 02:54:53;;;;;;;59.57;21.90;;;8.40;99.90;;;;;;5188126;28;20287;-53
2023/10/28 02:57:23;;;;;;;78.67;23.50;;;8.40;99.90;;;;;;5194427;28;20235;-51
2023/10/28 02:59:54;;;;;;;82.00;23.23;;;8.50;99.90;;;;;;5194395;28;20458;-51
2023/10/28 03:02:25;;;;;;;46.93;18.70;;;8.40;99.90;;;;;;5186025;28;20663;-51
2023/10/28 03:04:56;;;;;;;46.57;18.57;;;8.40;99.90;;;;;;5184668;28;20191;-52
2023/10/28 03:07:27;;;;;;;64.37;21.30;;;8.40;99.90;;;;;;5185908;28;20482;-51
2023/10/28 03:09:58;;;;;;;61.87;20.73;;;8.40;99.90;;;;;;5189809;28;20478;-53
2023/10/28 03:12:28;;;;;;;58.97;19.50;;;8.40;99.90;;;;;;5191908;28;20187;-52
2023/10/28 03:14:59;;;;;;;55.57;18.17;;;8.40;99.90;;;;;;5189330;28;20215;-51
2023/10/28 03:17:30;;;;;;;48.53;18.30;;;8.50;99.90;;;;;;5193376;28;20181;-53
2023/10/28 03:20:00;;;;;;;43.90;15.90;;;8.50;99.90;;;;;;5190172;28;20196;-50
2023/10/28 03:22:31;;;;;;;47.13;17.40;;;8.50;99.90;;;;;;5187796;28;20183;-52
2023/10/28 03:25:03;;;;;;;40.43;15.90;;;8.40;99.90;;;;;;5189680;28;20279;-53
2023/10/28 03:27:33;;;;;;;40.03;15.80;;;8.40;99.90;;;;;;5194860;28;20190;-52
2023/10/28 03:30:06;;;;;;;36.77;14.60;;;8.40;99.90;;;;;;5194742;28;20534;-52
2023/10/28 03:32:36;;;;;;;36.50;15.10;;;8.40;99.90;;;;;;5187330;28;20204;-51
2023/10/28 03:35:08;;;;;;;52.77;16.97;;;8.40;99.90;;;;;;5189278;28;20825;-51
2023/10/28 03:37:39;;;;;;;38.27;15.17;;;8.40;99.90;;;;;;5191160;28;20187;-49
2023/10/28 03:40:10;;;;;;;34.47;14.57;;;8.40;99.90;;;;;;5189690;28;20458;-51
2023/10/28 03:42:41;;;;;;;37.43;14.30;;;8.40;99.90;;;;;;5191713;28;20271;-52
2023/10/28 03:45:12;;;;;;;45.67;14.43;;;8.30;99.90;;;;;;5193355;28;20515;-50
2023/10/28 03:47:43;;;;;;;30.23;13.47;;;8.30;99.90;;;;;;5186174;28;20652;-51
2023/10/28 03:50:14;;;;;;;34.37;14.20;;;8.40;99.90;;;;;;5195166;28;20208;-49
2023/10/28 03:52:44;;;;;;;34.70;13.10;;;8.40;99.90;;;;;;5184459;28;20505;-51
2023/10/28 03:55:15;;;;;;;31.37;12.30;;;8.40;99.90;;;;;;5187910;28;20212;-50
2023/10/28 03:57:45;;;;;;;26.30;12.80;;;8.40;99.90;;;;;;5187779;28;20215;-49
2023/10/28 04:00:16;;;;;;;24.07;12.10;;;8.30;99.90;;;;;;5186670;28;20212;-55
2023/10/28 04:02:47;;;;;;;23.07;12.17;;;8.30;99.90;;;;;;5194436;28;20656;-51
2023/10/28 04:05:18;;;;;;;26.87;13.77;;;8.30;99.90;;;;;;5191595;28;20947;-50
2023/10/28 04:07:49;;;;;;;27.30;12.97;;;8.30;99.90;;;;;;5185310;28;20177;-51
2023/10/28 04:10:19;;;;;;;35.13;14.27;;;8.30;99.90;;;;;;5190397;28;20247;-50
2023/10/28 04:12:51;;;;;;;21.70;13.10;;;8.30;99.90;;;;;;5192054;28;20177;-51
2023/10/28 04:15:23;;;;;;;35.10;14.70;;;8.30;99.90;;;;;;5182537;28;20206;-51
2023/10/28 04:17:53;;;;;;;38.97;16.17;;;8.30;99.90;;;;;;5177255;28;20442;-51
2023/10/28 04:20:24;;;;;;;48.00;17.10;;;8.30;99.90;;;;;;5193726;28;20815;-50
2023/10/28 04:22:55;;;;;;;27.83;14.07;;;8.30;99.90;;;;;;5185624;28;20597;-50
2023/10/28 04:25:27;;;;;;;27.00;13.57;;;8.30;99.90;;;;;;5184595;28;20259;-50
2023/10/28 04:27:57;;;;;;;26.33;12.80;;;8.30;99.90;;;;;;5190955;28;20546;-48
2023/10/28 04:30:30;;;;;;;32.00;13.20;;;8.30;99.90;;;;;;5190191;28;20443;-50
2023/10/28 04:33:00;;;;;;;26.23;12.60;;;8.30;99.90;;;;;;5190280;28;20183;-49
2023/10/28 04:35:31;;;;;;;34.37;13.63;;;8.20;99.90;;;;;;5187624;28;20512;-51
2023/10/28 04:38:02;;;;;;;37.97;13.27;;;8.20;99.90;;;;;;5172238;28;20263;-50
2023/10/28 04:40:33;;;;;;;28.10;12.23;;;8.30;99.90;;;;;;5194579;28;20793;-51
2023/10/28 04:43:04;;;;;;;15.27;9.57;;;8.20;99.90;;;;;;5195276;28;20652;-52
2023/10/28 04:45:35;;;;;;;21.07;12.17;;;8.30;99.90;;;;;;5189409;28;20180;-52
2023/10/28 04:48:06;;;;;;;33.93;13.13;;;8.20;99.90;;;;;;5191197;28;20926;-52
2023/10/28 04:50:37;;;;;;;23.67;11.50;;;8.20;99.90;;;;;;5187595;28;20219;-51
2023/10/28 04:53:08;;;;;;;31.00;13.20;;;8.20;99.90;;;;;;5191270;28;20948;-52
2023/10/28 04:55:39;;;;;;;29.63;12.70;;;8.20;99.90;;;;;;5193570;28;20481;-51
2023/10/28 04:58:10;;;;;;;29.43;13.70;;;8.30;99.90;;;;;;5192939;28;20415;-53
2023/10/28 05:00:45;;;;;;;26.07;11.73;;;8.20;99.90;;;;;;5208961;28;20205;-50
2023/10/28 05:03:15;;;;;;;37.43;14.40;;;8.20;99.90;;;;;;5197801;28;20448;-53
2023/10/28 05:05:46;;;;;;;21.80;11.50;;;8.20;99.90;;;;;;5201722;28;20817;-51
2023/10/28 05:08:17;;;;;;;28.13;12.97;;;8.20;99.90;;;;;;5187908;28;20716;-51
2023/10/28 05:10:47;;;;;;;28.17;13.03;;;8.20;99.90;;;;;;5188968;28;20232;-51
2023/10/28 05:13:18;;;;;;;25.23;11.90;;;8.20;99.90;;;;;;5191306;28;20188;-50
2023/10/28 05:15:49;;;;;;;35.17;14.40;;;8.20;99.90;;;;;;5191012;28;20200;-51
2023/10/28 05:18:19;;;;;;;25.03;13.37;;;8.20;99.90;;;;;;5186259;28;20279;-51
2023/10/28 05:20:50;;;;;;;30.30;13.70;;;8.20;99.90;;;;;;5198583;28;20667;-52
2023/10/28 05:23:22;;;;;;;54.10;14.77;;;8.20;99.90;;;;;;5189021;28;20183;-51
2023/10/28 05:25:53;;;;;;;31.80;13.73;;;8.20;99.90;;;;;;5187136;28;20181;-51
2023/10/28 05:28:24;;;;;;;36.33;14.17;;;8.20;99.90;;;;;;5194499;28;20509;-50
2023/10/28 05:30:55;;;;;;;29.17;14.63;;;8.10;99.90;;;;;;5191649;28;20971;-50
2023/10/28 05:33:26;;;;;;;33.53;14.00;;;8.10;99.90;;;;;;5189157;28;20180;-51
2023/10/28 05:35:56;;;;;;;33.87;15.07;;;8.10;99.90;;;;;;5178249;28;20204;-49
2023/10/28 05:38:27;;;;;;;25.23;13.37;;;8.10;99.90;;;;;;5193960;28;20581;-50
2023/10/28 05:40:58;;;;;;;23.47;13.27;;;8.10;99.90;;;;;;5189003;28;20208;-52
2023/10/28 05:43:28;;;;;;;33.60;15.10;;;8.10;99.90;;;;;;5187804;28;20212;-51
2023/10/28 05:45:59;;;;;;;28.13;12.93;;;8.10;99.90;;;;;;5189674;28;20192;-50
2023/10/28 05:48:30;;;;;;;42.70;16.00;;;8.10;99.90;;;;;;5192664;28;20219;-52
2023/10/28 05:51:02;;;;;;;26.27;15.07;;;8.10;99.90;;;;;;5189606;28;20571;-50
2023/10/28 05:53:33;;;;;;;34.53;15.50;;;8.10;99.90;;;;;;5197942;28;20477;-51
2023/10/28 05:56:05;;;;;;;25.17;14.20;;;8.20;99.90;;;;;;5186689;28;20463;-51
2023/10/28 05:58:36;;;;;;;28.77;14.80;;;8.20;99.90;;;;;;5187445;28;20177;-52
2023/10/28 06:01:07;;;;;;;33.00;14.40;;;8.10;99.90;;;;;;5200538;28;20457;-51
2023/10/28 06:03:38;;;;;;;47.33;19.27;;;8.10;99.90;;;;;;5195108;28;20422;-51
2023/10/28 06:06:09;;;;;;;42.07;18.63;;;8.10;99.90;;;;;;5194042;28;20220;-50
2023/10/28 06:08:39;;;;;;;46.33;19.30;;;8.10;99.90;;;;;;5194137;28;20263;-51
2023/10/28 06:11:10;;;;;;;35.50;18.13;;;8.20;99.90;;;;;;5183611;28;20211;-51
2023/10/28 06:13:41;;;;;;;47.57;18.90;;;8.20;99.90;;;;;;5198293;28;20189;-50
2023/10/28 06:16:11;;;;;;;62.83;21.80;;;8.20;99.90;;;;;;5191650;28;20204;-51
2023/10/28 06:18:42;;;;;;;62.60;21.70;;;8.10;99.90;;;;;;5197336;28;20267;-51
2023/10/28 06:21:16;;;;;;;39.83;18.10;;;8.20;99.90;;;;;;5188260;28;20200;-50
2023/10/28 06:23:47;;;;;;;59.77;21.27;;;8.20;99.90;;;;;;5194969;28;20207;-51
2023/10/28 06:26:19;;;;;;;54.17;19.57;;;8.20;99.90;;;;;;5194019;28;20449;-53
2023/10/28 06:28:50;;;;;;;42.83;18.83;;;8.20;99.90;;;;;;5200562;28;20810;-50
2023/10/28 06:31:20;;;;;;;37.23;17.40;;;8.20;99.90;;;;;;5185462;28;20443;-51
2023/10/28 06:33:52;;;;;;;52.03;19.47;;;8.30;99.90;;;;;;5198589;28;20191;-51
2023/10/28 06:36:23;;;;;;;54.93;18.70;;;8.30;99.90;;;;;;5197653;28;20219;-50
2023/10/28 06:38:56;;;;;;;23.40;14.37;;;8.30;99.90;;;;;;5191647;28;20492;-50
2023/10/28 06:41:27;;;;;;;22.03;12.47;;;8.40;99.90;;;;;;5188815;28;20200;-51
2023/10/28 06:44:02;;;;;;;40.83;17.03;;;8.40;99.90;;;;;;5196268;28;20942;-50
2023/10/28 06:46:33;;;;;;;33.53;15.57;;;8.30;99.90;;;;;;5190518;28;20176;-50
2023/10/28 06:49:04;;;;;;;31.57;14.83;;;8.30;99.90;;;;;;5191048;28;20970;-50
2023/10/28 06:51:35;;;;;;;36.50;16.60;;;8.30;99.90;;;;;;5188721;28;20781;-50
2023/10/28 06:54:06;;;;;;;30.23;14.93;;;8.30;99.90;;;;;;5189313;28;20435;-51
2023/10/28 06:56:38;;;;;;;34.10;17.60;;;8.30;99.90;;;;;;5194811;28;20231;-50
2023/10/28 06:59:09;;;;;;;52.67;18.47;;;8.20;99.90;;;;;;5191711;28;20431;-50
2023/10/28 07:01:40;;;;;;;31.70;15.93;;;8.20;99.90;;;;;;5191905;28;20459;-49
2023/10/28 07:04:13;;;;;;;31.67;17.30;;;8.20;99.90;;;;;;5193588;28;20268;-51
2023/10/28 07:06:44;;;;;;;49.93;18.93;;;8.20;99.90;;;;;;5191466;28;20192;-51
2023/10/28 07:09:17;;;;;;;45.60;18.63;;;8.20;99.90;;;;;;5192546;28;20950;-51
2023/10/28 07:11:48;;;;;;;49.50;19.47;;;8.20;99.90;;;;;;5197045;28;20620;-50
2023/10/28 07:14:19;;;;;;;39.50;17.20;;;8.30;99.90;;;;;;5192325;28;20442;-51
2023/10/28 07:16:50;;;;;;;37.37;17.10;;;8.30;99.90;;;;;;5194945;28;20230;-50
2023/10/28 07:19:21;;;;;;;57.17;20.67;;;8.30;99.90;;;;;;5184179;28;20252;-51
2023/10/28 07:21:51;;;;;;;63.23;23.37;;;8.30;99.90;;;;;;5191112;28;20282;-50
2023/10/28 07:24:22;;;;;;;47.67;22.33;;;8.30;99.90;;;;;;5189977;28;20430;-50
2023/10/28 07:26:53;;;;;;;40.13;19.87;;;8.30;99.90;;;;;;5194267;28;20187;-53
2023/10/28 07:29:23;;;;;;;56.10;23.00;;;8.30;99.90;;;;;;5192388;28;20190;-53
2023/10/28 07:31:56;;;;;;;56.57;22.30;;;8.30;99.90;;;;;;5193512;28;20255;-51
2023/10/28 07:34:27;;;;;;;42.03;19.90;;;8.30;99.90;;;;;;5200477;28;20183;-51
2023/10/28 07:37:03;;;;;;;46.20;21.20;;;8.40;99.90;;;;;;5187041;28;21002;-51
2023/10/28 07:39:34;;;;;;;45.70;20.63;;;8.40;99.90;;;;;;5181825;28;20194;-50
2023/10/28 07:42:05;;;;;;;47.70;21.80;;;8.40;99.90;;;;;;5190815;28;20427;-52
2023/10/28 07:44:37;;;;;;;52.57;21.77;;;8.40;99.90;;;;;;5185544;28;20180;-51
2023/10/28 07:47:08;;;;;;;48.63;21.60;;;8.40;99.90;;;;;;5190344;28;20440;-52
2023/10/28 07:49:39;;;;;;;56.33;23.57;;;8.40;99.90;;;;;;5198515;28;20501;-52
2023/10/28 07:52:09;;;;;;;33.77;18.23;;;8.40;99.90;;;;;;5185463;28;20427;-51
2023/10/28 07:54:40;;;;;;;53.70;22.20;;;8.50;99.90;;;;;;5187128;28;20235;-50
2023/10/28 07:57:12;;;;;;;38.37;19.10;;;8.50;99.90;;;;;;5187268;28;20263;-51
2023/10/28 07:59:42;;;;;;;42.33;20.80;;;8.50;99.90;;;;;;5180389;28;20888;-51
2023/10/28 08:02:13;;;;;;;48.13;21.70;;;8.50;99.90;;;;;;5184158;28;20177;-51
2023/10/28 08:04:44;;;;;;;58.83;22.87;;;8.50;99.90;;;;;;5184056;28;20181;-51
2023/10/28 08:07:15;;;;;;;49.27;19.63;;;8.60;99.90;;;;;;5189614;28;20176;-50
2023/10/28 08:09:45;;;;;;;46.17;20.63;;;8.60;99.90;;;;;;5184349;28;20619;-51
2023/10/28 08:12:16;;;;;;;45.20;19.70;;;8.70;99.90;;;;;;5181869;28;20458;-51
2023/10/28 08:14:48;;;;;;;50.23;21.73;;;8.70;99.90;;;;;;5191773;28;20171;-52
2023/10/28 08:17:21;;;;;;;36.77;19.00;;;8.70;99.90;;;;;;5186790;28;20181;-51
2023/10/28 08:19:52;;;;;;;32.50;19.80;;;8.70;99.90;;;;;;5185465;28;21079;-52
2023/10/28 08:22:24;;;;;;;54.73;22.40;;;8.70;99.90;;;;;;5196007;28;20933;-50
2023/10/28 08:24:55;;;;;;;37.93;21.07;;;8.70;99.90;;;;;;5188877;28;20188;-52
2023/10/28 08:27:25;;;;;;;47.97;21.00;;;8.80;99.90;;;;;;5195964;28;20446;-50
2023/10/28 08:29:56;;;;;;;49.23;21.33;;;8.80;99.90;;;;;;5188789;28;20286;-52
2023/10/28 08:32:27;;;;;;;30.10;19.10;;;8.90;99.90;;;;;;5196073;28;20223;-50
2023/10/28 08:34:58;;;;;;;44.10;20.43;;;8.90;99.90;;;;;;5186029;28;20193;-51
2023/10/28 08:37:29;;;;;;;35.57;19.43;;;8.80;99.90;;;;;;5188518;28;20989;-51
2023/10/28 08:40:00;;;;;;;32.00;17.93;;;8.90;99.90;;;;;;5193567;28;20734;-51
2023/10/28 08:42:30;;;;;;;60.20;23.87;;;8.90;99.90;;;;;;5185919;28;20238;-51
2023/10/28 08:45:03;;;;;;;43.57;20.37;;;8.90;99.90;;;;;;5186149;28;20445;-50
2023/10/28 08:47:38;;;;;;;38.67;21.70;;;9.00;99.90;;;;;;5185407;28;20199;-50
2023/10/28 08:50:10;;;;;;;39.60;20.50;;;9.00;99.90;;;;;;5185327;28;20506;-51
2023/10/28 08:52:41;;;;;;;35.60;19.07;;;9.10;99.90;;;;;;5185968;28;20423;-51
2023/10/28 08:55:12;;;;;;;23.97;15.73;;;9.10;99.90;;;;;;5170410;28;20512;-50
2023/10/28 08:57:46;;;;;;;25.03;16.70;;;9.10;99.90;;;;;;5187278;28;20454;-50
2023/10/28 09:00:20;;;;;;;30.33;16.43;;;9.20;99.90;;;;;;5187422;28;20188;-52
2023/10/28 09:02:52;;;;;;;31.60;17.10;;;9.10;99.90;;;;;;5193196;28;20459;-51
2023/10/28 09:05:23;;;;;;;31.63;17.47;;;9.10;99.90;;;;;;5185121;28;20462;-51
2023/10/28 09:07:55;;;;;;;38.73;18.30;;;9.10;99.90;;;;;;5185370;28;20414;-52
2023/10/28 09:10:27;;;;;;;41.70;20.00;;;9.10;99.90;;;;;;5187920;28;20207;-51
2023/10/28 09:12:58;;;;;;;31.67;17.50;;;9.20;99.90;;;;;;5190435;28;20438;-50
2023/10/28 09:15:29;;;;;;;37.90;17.63;;;9.20;99.90;;;;;;5185743;28;20509;-52
2023/10/28 09:18:01;;;;;;;34.13;19.03;;;9.40;99.90;;;;;;5186247;28;20436;-52
2023/10/28 09:20:32;;;;;;;34.23;18.17;;;9.40;99.90;;;;;;5189490;28;20462;-51
2023/10/28 09:23:02;;;;;;;38.77;19.20;;;9.50;99.90;;;;;;5187284;28;20765;-52
2023/10/28 09:25:34;;;;;;;35.63;17.13;;;9.50;99.90;;;;;;5186262;28;20212;-51
2023/10/28 09:28:13;;;;;;;37.90;19.37;;;9.50;99.90;;;;;;5185679;28;20271;-53
2023/10/28 09:30:47;;;;;;;54.57;22.60;;;9.50;99.90;;;;;;5187737;28;20806;-51
2023/10/28 09:33:19;;;;;;;31.53;16.50;;;9.60;99.90;;;;;;5187684;28;20437;-51
2023/10/28 09:35:53;;;;;;;34.50;19.50;;;9.60;99.90;;;;;;5184421;28;20521;-52
2023/10/28 09:38:24;;;;;;;50.33;24.23;;;9.70;99.90;;;;;;5184911;28;20447;-51
2023/10/28 09:40:58;;;;;;;45.10;21.10;;;9.80;99.90;;;;;;5184818;28;20517;-51
2023/10/28 09:43:32;;;;;;;37.27;19.67;;;9.80;99.90;;;;;;5196434;28;20184;-50
2023/10/28 09:46:05;;;;;;;27.23;19.53;;;9.70;99.90;;;;;;5193566;28;20441;-51
2023/10/28 09:48:45;;;;;;;31.43;20.70;;;9.70;99.90;;;;;;5192862;28;20801;-53
2023/10/28 09:51:20;;;;;;;36.90;22.17;;;9.70;99.90;;;;;;5184734;28;20484;-53
2023/10/28 09:54:02;;;;;;;36.30;22.37;;;9.60;99.90;;;;;;5190688;28;20443;-52
2023/10/28 09:56:37;;;;;;;43.90;23.17;;;9.70;99.90;;;;;;5184264;28;20493;-51
2023/10/28 09:59:15;;;;;;;39.63;22.57;;;9.70;99.90;;;;;;5185934;28;20763;-53
2023/10/28 10:02:12;;;;;;;43.17;24.33;;;9.80;99.90;;;;;;5203332;28;20442;-51
2023/10/28 10:04:51;;;;;;;40.83;25.07;;;10.00;99.90;;;;;;5181020;28;20420;-51
2023/10/28 10:07:22;;;;;;;55.80;28.47;;;10.00;99.90;;;;;;5179260;28;20496;-52
2023/10/28 10:09:53;;;;;;;48.10;27.50;;;10.10;99.90;;;;;;5179622;28;20982;-52
2023/10/28 10:12:31;;;;;;;47.97;27.33;;;10.20;99.90;;;;;;5183569;28;20185;-52
2023/10/28 10:15:03;;;;;;;49.43;28.37;;;10.40;99.90;;;;;;5183348;28;20266;-50
2023/10/28 10:17:56;;;;;;;37.00;23.27;;;10.60;99.90;;;;;;5183406;28;20499;-54
2023/10/28 10:20:28;;;;;;;39.77;24.53;;;10.70;99.90;;;;;;5180995;28;20463;-53
2023/10/28 10:23:02;;;;;;;43.23;25.63;;;10.90;99.90;;;;;;5181748;28;20415;-53
2023/10/28 10:25:36;;;;;;;52.33;27.63;;;10.90;99.90;;;;;;5188707;28;20432;-53
2023/10/28 10:28:12;;;;;;;47.20;26.77;;;11.00;99.90;;;;;;5182510;28;20435;-53
2023/10/28 10:30:43;;;;;;;39.00;23.80;;;11.10;99.90;;;;;;5187921;28;20581;-53
2023/10/28 10:33:27;;;;;;;39.37;24.87;;;11.20;99.90;;;;;;5179340;28;20966;-53
2023/10/28 10:36:00;;;;;;;33.03;21.37;;;11.20;99.90;;;;;;5170868;28;20227;-52
2023/10/28 10:38:31;;;;;;;33.83;21.13;;;11.10;99.90;;;;;;5177399;28;20510;-54
2023/10/28 10:41:04;;;;;;;35.73;21.33;;;11.10;99.90;;;;;;5179441;28;20523;-53
2023/10/28 10:43:37;;;;;;;28.40;19.47;;;11.10;99.90;;;;;;5180341;28;20436;-53
2023/10/28 10:46:09;;;;;;;30.07;20.13;;;11.30;99.90;;;;;;5180229;28;20466;-55
2023/10/28 10:48:40;;;;;;;23.63;18.07;;;11.60;99.90;;;;;;5177336;28;20585;-52
2023/10/28 10:51:12;;;;;;;21.40;15.83;;;11.50;99.90;;;;;;5178212;28;20555;-55
2023/10/28 10:53:43;;;;;;;19.83;14.17;;;11.60;99.90;;;;;;5180433;28;20220;-53
2023/10/28 10:56:20;;;;;;;24.63;15.43;;;11.70;99.90;;;;;;5181107;28;20469;-53
2023/10/28 10:58:51;;;;;;;38.87;22.27;;;11.80;99.90;;;;;;5182968;28;20431;-52
2023/10/28 11:01:22;;;;;;;26.07;15.17;;;11.60;99.90;;;;;;5184543;28;20521;-53
2023/10/28 11:03:52;;;;;;;17.57;14.50;;;11.70;99.90;;;;;;5178670;28;20669;-53
2023/10/28 11:06:24;;;;;;;18.80;14.50;;;11.90;99.90;;;;;;5178709;28;20194;-53
2023/10/28 11:08:55;;;;;;;19.83;14.40;;;11.80;99.90;;;;;;5174472;28;20202;-53
2023/10/28 11:11:25;;;;;;;14.93;12.13;;;11.80;99.90;;;;;;5176075;28;20468;-52
2023/10/28 11:13:57;;;;;;;18.60;14.50;;;11.70;99.90;;;;;;5182484;28;20528;-52
2023/10/28 11:16:28;;;;;;;37.87;20.47;;;11.80;99.90;;;;;;5179937;28;20730;-53
2023/10/28 11:19:03;;;;;;;19.27;15.60;;;11.90;99.90;;;;;;5176678;28;20450;-53
2023/10/28 11:21:33;;;;;;;22.30;15.53;;;11.90;99.90;;;;;;5180676;28;20504;-54
2023/10/28 11:24:05;;;;;;;19.30;15.13;;;11.80;99.90;;;;;;5182161;28;20443;-53
2023/10/28 11:26:39;;;;;;;22.53;16.53;;;11.80;99.90;;;;;;5183336;28;20513;-52
2023/10/28 11:29:10;;;;;;;26.30;18.40;;;11.70;99.90;;;;;;5181227;28;20438;-53
2023/10/28 11:31:41;;;;;;;23.03;16.23;;;11.60;99.90;;;;;;5178258;28;20468;-52
2023/10/28 11:34:13;;;;;;;29.87;19.87;;;11.60;99.90;;;;;;5180414;28;20192;-52
2023/10/28 11:36:44;;;;;;;27.80;18.70;;;11.70;99.90;;;;;;5181805;28;21005;-52
2023/10/28 11:39:17;;;;;;;30.80;19.57;;;11.70;99.90;;;;;;5178973;28;20439;-54
2023/10/28 11:41:48;;;;;;;28.67;19.37;;;11.50;99.90;;;;;;5166721;28;20184;-52
2023/10/28 11:44:27;;;;;;;20.73;15.73;;;11.40;99.90;;;;;;5181716;28;20494;-53
2023/10/28 11:46:58;;;;;;;30.07;18.43;;;11.30;99.90;;;;;;5177066;28;20200;-53
2023/10/28 11:49:29;;;;;;;30.07;18.00;;;11.20;99.90;;;;;;5190189;28;20904;-54
2023/10/28 11:52:00;;;;;;;26.03;17.70;;;11.10;99.90;;;;;;5191510;28;20687;-52
2023/10/28 11:54:30;;;;;;;26.90;18.50;;;11.10;99.90;;;;;;5183618;28;20546;-51
2023/10/28 11:57:01;;;;;;;23.63;15.73;;;11.20;99.90;;;;;;5193634;28;20975;-52
2023/10/28 11:59:32;;;;;;;16.10;14.40;;;11.40;99.90;;;;;;5179379;28;20184;-54
2023/10/28 12:02:03;;;;;;;25.30;16.30;;;11.70;99.90;;;;;;5183225;28;20176;-53
2023/10/28 12:04:34;;;;;;;25.33;17.27;;;12.00;99.90;;;;;;5183926;28;20451;-52
2023/10/28 12:07:05;;;;;;;19.43;15.10;;;12.20;99.90;;;;;;5186577;28;20517;-57
2023/10/28 12:09:37;;;;;;;20.83;14.93;;;12.00;99.90;;;;;;5166009;28;20218;-52
2023/10/28 12:12:09;;;;;;;18.93;13.83;;;11.80;99.90;;;;;;5183159;28;20448;-52
2023/10/28 12:14:40;;;;;;;21.17;13.43;;;11.60;99.90;;;;;;5185852;28;21023;-53
2023/10/28 12:17:11;;;;;;;17.97;13.13;;;11.30;99.90;;;;;;5181716;28;20919;-52
2023/10/28 12:19:42;;;;;;;14.23;12.40;;;11.20;99.90;;;;;;5179847;28;20470;-53
2023/10/28 12:22:13;;;;;;;13.63;11.70;;;11.10;99.90;;;;;;5181755;28;20439;-52
2023/10/28 12:24:44;;;;;;;21.13;14.63;;;11.20;99.90;;;;;;5184252;28;20250;-53
2023/10/28 12:27:15;;;;;;;22.13;14.40;;;11.20;99.90;;;;;;5186117;28;20469;-53
2023/10/28 12:29:46;;;;;;;19.93;13.90;;;11.20;99.90;;;;;;5179271;28;20578;-52
2023/10/28 12:32:17;;;;;;;18.73;13.37;;;11.20;99.90;;;;;;5185948;28;20423;-52
2023/10/28 12:34:48;;;;;;;17.13;13.17;;;11.20;99.90;;;;;;5181943;28;20189;-53
2023/10/28 12:37:18;;;;;;;19.30;13.87;;;11.30;99.90;;;;;;5184723;28;20598;-53
2023/10/28 12:39:49;;;;;;;18.37;14.30;;;11.30;99.90;;;;;;5185013;28;20208;-53
2023/10/28 12:42:20;;;;;;;18.90;13.67;;;11.30;99.90;;;;;;5178031;28;21841;-53
2023/10/28 12:44:50;;;;;;;20.13;14.23;;;11.30;99.90;;;;;;5185951;28;20231;-53
2023/10/28 12:47:21;;;;;;;17.00;12.90;;;11.40;99.90;;;;;;5187478;28;20169;-51
2023/10/28 12:49:52;;;;;;;18.83;13.70;;;11.40;99.90;;;;;;5180287;28;20224;-51
2023/10/28 12:52:23;;;;;;;21.63;13.60;;;11.40;99.90;;;;;;5185439;28;20180;-52
2023/10/28 12:54:53;;;;;;;22.40;14.40;;;11.50;99.90;;;;;;5182234;28;20181;-52